Time;durP1;ratioP1;P1;durP2;ratioP2;P2;SDS_P1;SDS_P2;PMS_P1;PMS_P2;Temp;Humidity;BMP_temperature;BMP_pressure;BME280_temperature;BME280_humidity;BME280_pressure;Samples;Min_cycle;Max_cycle;Signal;HPM_P1;HPM_P2
2023/08/16 00:00:51;;;;;;;6.53;4.15;;;19.70;99.90;;;;;;4076584;29;20166;-64
2023/08/16 00:02:53;;;;;;;8.00;4.38;;;19.60;99.90;;;;;;4075161;29;20108;-66
2023/08/16 00:04:54;;;;;;;5.70;4.00;;;19.60;99.90;;;;;;4069462;29;20072;-65
2023/08/16 00:06:55;;;;;;;9.43;4.47;;;19.60;99.90;;;;;;4077542;29;20108;-63
2023/08/16 00:08:58;;;;;;;4.53;4.07;;;19.50;99.90;;;;;;4074864;29;20128;-67
2023/08/16 00:11:01;;;;;;;4.40;3.83;;;19.50;99.90;;;;;;4069428;29;20055;-66
2023/08/16 00:13:02;;;;;;;4.53;3.75;;;19.40;99.90;;;;;;4064072;29;20044;-65
2023/08/16 00:15:03;;;;;;;6.53;4.00;;;19.30;99.90;;;;;;4066231;29;20040;-63
2023/08/16 00:17:04;;;;;;;4.43;4.00;;;19.30;99.90;;;;;;4068952;29;20036;-65
2023/08/16 00:19:05;;;;;;;4.40;3.72;;;19.30;99.90;;;;;;4081163;29;20381;-64
2023/08/16 00:21:07;;;;;;;4.95;3.67;;;19.30;99.90;;;;;;4079305;29;20040;-64
2023/08/16 00:23:08;;;;;;;4.20;3.80;;;19.30;99.90;;;;;;4080979;29;20134;-65
2023/08/16 00:25:09;;;;;;;5.13;3.95;;;19.30;99.90;;;;;;4078746;29;20086;-65
2023/08/16 00:27:10;;;;;;;5.15;4.00;;;19.30;99.90;;;;;;4070668;29;20032;-66
2023/08/16 00:29:11;;;;;;;7.70;4.97;;;19.20;99.90;;;;;;4071136;29;20544;-66
2023/08/16 00:31:12;;;;;;;5.63;4.50;;;19.10;99.90;;;;;;4071100;29;20098;-66
2023/08/16 00:33:13;;;;;;;7.72;4.57;;;19.00;99.90;;;;;;4070694;29;20065;-66
2023/08/16 00:35:14;;;;;;;6.00;4.70;;;18.90;99.90;;;;;;4075265;29;20161;-65
2023/08/16 00:37:16;;;;;;;8.10;4.93;;;18.90;99.90;;;;;;4069169;29;20437;-66
2023/08/16 00:39:17;;;;;;;7.80;4.60;;;18.90;99.90;;;;;;4066268;29;20064;-66
2023/08/16 00:41:19;;;;;;;7.10;4.57;;;18.90;99.90;;;;;;4069159;29;20498;-66
2023/08/16 00:43:20;;;;;;;5.45;4.90;;;18.80;99.90;;;;;;4073767;29;20067;-64
2023/08/16 00:45:21;;;;;;;5.25;4.53;;;18.80;99.90;;;;;;4079422;29;20083;-65
2023/08/16 00:47:23;;;;;;;5.00;3.90;;;18.80;99.90;;;;;;4073076;29;20107;-67
2023/08/16 00:49:24;;;;;;;5.78;3.97;;;18.90;99.90;;;;;;4064568;29;20040;-67
2023/08/16 00:51:25;;;;;;;5.32;4.40;;;18.90;99.90;;;;;;4063520;29;20394;-66
2023/08/16 00:53:29;;;;;;;6.72;4.72;;;19.00;99.90;;;;;;4068994;29;20031;-64
2023/08/16 00:55:30;;;;;;;5.25;4.75;;;19.00;99.90;;;;;;4079859;29;20028;-65
2023/08/16 00:57:31;;;;;;;5.90;4.50;;;19.00;99.90;;;;;;4080370;29;20039;-64
2023/08/16 00:59:32;;;;;;;9.25;5.00;;;18.90;99.90;;;;;;4077477;29;20052;-66
2023/08/16 01:01:33;;;;;;;8.52;5.38;;;18.80;99.90;;;;;;4076956;29;20069;-67
2023/08/16 01:03:35;;;;;;;7.50;5.55;;;18.80;99.90;;;;;;4073619;29;20115;-65
2023/08/16 01:05:37;;;;;;;7.13;4.60;;;18.80;99.90;;;;;;4066296;29;20048;-67
2023/08/16 01:07:38;;;;;;;6.25;4.80;;;18.80;99.90;;;;;;4065168;29;20047;-64
2023/08/16 01:09:40;;;;;;;6.68;5.22;;;18.90;99.90;;;;;;4069670;29;20043;-65
2023/08/16 01:11:55;;;;;;;5.82;4.93;;;18.90;99.90;;;;;;4070995;29;20548;-67
2023/08/16 01:14:03;;;;;;;5.82;4.85;;;18.90;99.90;;;;;;4063901;29;20048;-68
2023/08/16 01:16:09;;;;;;;5.95;5.35;;;18.80;99.90;;;;;;4064092;29;20493;-63
2023/08/16 01:18:12;;;;;;;5.25;4.75;;;18.90;99.90;;;;;;4062103;29;21088;-67
2023/08/16 01:20:16;;;;;;;5.40;4.80;;;18.90;99.90;;;;;;4064315;29;20671;-67
2023/08/16 01:22:55;;;;;;;7.18;5.05;;;18.90;99.90;;;;;;4066294;29;20043;-67
2023/08/16 01:25:12;;;;;;;5.93;5.15;;;18.90;99.90;;;;;;4022797;29;20093;-65
2023/08/16 01:27:18;;;;;;;5.63;5.10;;;18.90;99.90;;;;;;4029246;29;20056;-66
2023/08/16 01:29:20;;;;;;;5.18;4.53;;;18.90;99.90;;;;;;4005582;29;20058;-66
2023/08/16 01:31:21;;;;;;;5.55;4.60;;;18.90;99.90;;;;;;4064588;29;20477;-67
2023/08/16 01:33:22;;;;;;;6.10;4.40;;;18.90;99.90;;;;;;4066280;29;20096;-66
2023/08/16 01:35:23;;;;;;;8.15;5.03;;;18.90;99.90;;;;;;4069356;29;20087;-67
2023/08/16 01:37:25;;;;;;;8.23;5.03;;;18.80;99.90;;;;;;4070424;29;20099;-65
2023/08/16 01:39:26;;;;;;;6.78;5.20;;;18.80;99.90;;;;;;4065572;29;20036;-64
2023/08/16 01:41:35;;;;;;;9.20;5.72;;;18.80;99.90;;;;;;4071492;29;20474;-65
2023/08/16 01:43:38;;;;;;;6.20;5.55;;;18.70;99.90;;;;;;4077523;29;20091;-65
2023/08/16 01:45:39;;;;;;;8.20;4.97;;;18.70;99.90;;;;;;4079892;29;20095;-65
2023/08/16 01:47:41;;;;;;;6.35;5.35;;;18.70;99.90;;;;;;4077447;29;20476;-65
2023/08/16 01:49:43;;;;;;;6.15;4.93;;;18.60;99.90;;;;;;4080358;29;20476;-65
2023/08/16 01:51:44;;;;;;;5.97;5.00;;;18.60;99.90;;;;;;4078843;29;20036;-65
2023/08/16 01:53:52;;;;;;;5.93;5.07;;;18.50;99.90;;;;;;4077708;29;20559;-66
2023/08/16 01:55:53;;;;;;;6.88;5.20;;;18.50;99.90;;;;;;4062545;29;20036;-65
2023/08/16 01:57:54;;;;;;;7.88;4.97;;;18.50;99.90;;;;;;4064426;29;20040;-62
2023/08/16 01:59:55;;;;;;;4.78;4.30;;;18.60;99.90;;;;;;4079024;29;20083;-65
2023/08/16 02:01:56;;;;;;;7.30;4.80;;;18.60;99.90;;;;;;4079383;29;20119;-64
2023/08/16 02:03:57;;;;;;;5.50;5.00;;;18.70;99.90;;;;;;4077770;29;20139;-68
2023/08/16 02:05:59;;;;;;;7.43;4.63;;;18.70;99.90;;;;;;4063602;29;20473;-67
2023/08/16 02:08:00;;;;;;;6.00;4.78;;;18.70;99.90;;;;;;4062095;29;20553;-66
2023/08/16 02:10:01;;;;;;;6.10;4.40;;;18.70;99.90;;;;;;4077525;29;20463;-67
2023/08/16 02:12:02;;;;;;;7.90;5.07;;;18.80;99.90;;;;;;4067026;29;20509;-67
2023/08/16 02:14:03;;;;;;;6.93;4.38;;;18.80;99.90;;;;;;4075054;29;20139;-66
2023/08/16 02:16:04;;;;;;;5.35;4.47;;;18.80;99.90;;;;;;4077662;29;20448;-66
2023/08/16 02:18:10;;;;;;;6.78;4.57;;;18.90;99.90;;;;;;4078850;29;20028;-66
2023/08/16 02:20:12;;;;;;;7.53;5.15;;;18.90;99.90;;;;;;4080360;29;20023;-63
2023/08/16 02:22:13;;;;;;;9.07;5.05;;;18.90;99.90;;;;;;4078403;29;20048;-62
2023/08/16 02:24:14;;;;;;;7.05;4.97;;;19.00;99.90;;;;;;4081577;29;20043;-66
2023/08/16 02:26:16;;;;;;;7.82;5.80;;;19.00;99.90;;;;;;4077345;29;20110;-63
2023/08/16 02:28:18;;;;;;;14.60;5.50;;;18.90;99.90;;;;;;4067210;29;20187;-66
2023/08/16 02:30:19;;;;;;;10.95;5.53;;;18.80;99.90;;;;;;4066049;29;20044;-64
2023/08/16 02:32:20;;;;;;;9.73;5.55;;;18.70;99.90;;;;;;4077709;29;20096;-63
2023/08/16 02:34:21;;;;;;;7.00;5.35;;;18.70;99.90;;;;;;4066339;29;20437;-63
2023/08/16 02:36:23;;;;;;;8.75;6.88;;;18.70;99.90;;;;;;4078979;29;20449;-62
2023/08/16 02:38:24;;;;;;;7.38;5.63;;;18.60;99.90;;;;;;4080675;29;20024;-63
2023/08/16 02:40:26;;;;;;;9.02;5.20;;;18.60;99.90;;;;;;4081073;29;20051;-65
2023/08/16 02:42:27;;;;;;;9.77;4.78;;;18.60;99.90;;;;;;4080459;29;20056;-66
2023/08/16 02:44:28;;;;;;;6.60;4.90;;;18.60;99.90;;;;;;4079857;29;20111;-66
2023/08/16 02:46:29;;;;;;;10.38;5.53;;;18.50;99.90;;;;;;4082098;29;20024;-60
2023/08/16 02:48:30;;;;;;;5.95;5.45;;;18.60;99.90;;;;;;4081095;29;20484;-64
2023/08/16 02:50:31;;;;;;;9.27;5.88;;;18.60;99.90;;;;;;4066943;29;20036;-65
2023/08/16 02:52:32;;;;;;;12.57;6.10;;;18.50;99.90;;;;;;4072957;29;20086;-64
2023/08/16 02:54:34;;;;;;;12.90;6.63;;;18.60;99.90;;;;;;4082539;29;20079;-61
2023/08/16 02:56:35;;;;;;;9.48;5.88;;;18.60;99.90;;;;;;4081115;29;20084;-66
2023/08/16 02:58:36;;;;;;;5.93;4.88;;;18.60;99.90;;;;;;4082551;29;20575;-63
2023/08/16 03:00:38;;;;;;;9.15;5.63;;;18.60;99.90;;;;;;4080933;29;20427;-61
2023/08/16 03:02:39;;;;;;;7.82;5.30;;;18.60;99.90;;;;;;4076599;29;20087;-62
2023/08/16 03:04:40;;;;;;;11.82;5.45;;;18.60;99.90;;;;;;4066688;29;20623;-62
2023/08/16 03:06:41;;;;;;;11.00;5.32;;;18.60;99.90;;;;;;4072534;29;20040;-66
2023/08/16 03:08:42;;;;;;;6.40;5.65;;;18.60;99.90;;;;;;4074742;29;20642;-63
2023/08/16 03:10:44;;;;;;;6.95;5.38;;;18.60;99.90;;;;;;4076669;29;20052;-64
2023/08/16 03:12:45;;;;;;;9.65;5.45;;;18.60;99.90;;;;;;4066773;29;20028;-63
2023/08/16 03:14:46;;;;;;;8.00;4.97;;;18.60;99.90;;;;;;4066030;29;20124;-62
2023/08/16 03:16:47;;;;;;;7.88;5.15;;;18.60;99.90;;;;;;4066275;29;20481;-64
2023/08/16 03:18:48;;;;;;;5.43;4.90;;;18.60;99.90;;;;;;4065692;29;20111;-64
2023/08/16 03:20:49;;;;;;;7.60;5.75;;;18.60;99.90;;;;;;4082266;29;20024;-63
2023/08/16 03:22:50;;;;;;;6.32;5.00;;;18.60;99.90;;;;;;4069456;29;20040;-65
2023/08/16 03:24:51;;;;;;;5.90;5.00;;;18.60;99.90;;;;;;4077274;29;20127;-66
2023/08/16 03:26:53;;;;;;;5.88;5.18;;;18.60;99.90;;;;;;4079248;29;20051;-64
2023/08/16 03:28:54;;;;;;;6.95;5.15;;;18.60;99.90;;;;;;4066056;29;20048;-63
2023/08/16 03:30:55;;;;;;;5.70;5.20;;;18.60;99.90;;;;;;4071839;29;20110;-65
2023/08/16 03:32:56;;;;;;;10.25;5.53;;;18.60;99.90;;;;;;4081495;29;20036;-66
2023/08/16 03:34:57;;;;;;;10.07;5.40;;;18.50;99.90;;;;;;4080126;29;21624;-65
2023/08/16 03:36:58;;;;;;;7.45;5.47;;;18.50;99.90;;;;;;4080987;29;20464;-65
2023/08/16 03:38:59;;;;;;;10.07;5.25;;;18.50;99.90;;;;;;4077395;29;20028;-63
2023/08/16 03:41:01;;;;;;;6.65;5.45;;;18.40;99.90;;;;;;4072466;29;20484;-66
2023/08/16 03:43:02;;;;;;;12.10;5.57;;;18.30;99.90;;;;;;4065281;29;20040;-66
2023/08/16 03:45:04;;;;;;;7.50;5.15;;;18.20;99.90;;;;;;4081175;29;20543;-65
2023/08/16 03:47:05;;;;;;;10.70;5.35;;;18.20;99.90;;;;;;4076078;29;20028;-64
2023/08/16 03:49:07;;;;;;;6.72;4.93;;;18.20;99.90;;;;;;4069048;29;20059;-62
2023/08/16 03:51:08;;;;;;;8.98;6.13;;;18.10;99.90;;;;;;4070364;29;20036;-65
2023/08/16 03:53:11;;;;;;;9.48;5.82;;;18.10;99.90;;;;;;4066724;29;20601;-67
2023/08/16 03:55:12;;;;;;;5.75;5.15;;;18.20;99.90;;;;;;4076226;29;20032;-66
2023/08/16 03:57:14;;;;;;;7.45;5.45;;;18.10;99.90;;;;;;4080147;29;20043;-66
2023/08/16 03:59:15;;;;;;;6.20;5.28;;;18.10;99.90;;;;;;4068354;29;20048;-66
2023/08/16 04:01:16;;;;;;;8.35;5.40;;;18.10;99.90;;;;;;4067518;29;20791;-63
2023/08/16 04:03:18;;;;;;;8.55;5.88;;;18.10;99.90;;;;;;4076662;29;20107;-66
2023/08/16 04:05:21;;;;;;;8.45;5.57;;;18.20;99.90;;;;;;4074586;29;20032;-66
2023/08/16 04:07:23;;;;;;;6.65;5.90;;;18.20;99.90;;;;;;4068798;29;20056;-64
2023/08/16 04:09:24;;;;;;;6.85;5.68;;;18.20;99.90;;;;;;4063596;29;20529;-64
2023/08/16 04:11:25;;;;;;;7.45;5.57;;;18.20;99.90;;;;;;4065478;29;20501;-64
2023/08/16 04:13:26;;;;;;;6.78;5.65;;;18.30;99.90;;;;;;4064370;29;20043;-65
2023/08/16 04:15:27;;;;;;;7.88;5.78;;;18.30;99.90;;;;;;4066426;29;20110;-63
2023/08/16 04:17:28;;;;;;;12.88;8.95;;;18.30;99.90;;;;;;4066059;29;20099;-65
2023/08/16 04:19:32;;;;;;;7.75;5.80;;;18.30;99.90;;;;;;4078119;29;20043;-65
2023/08/16 04:21:33;;;;;;;12.27;6.68;;;18.30;99.90;;;;;;4066785;29;20040;-64
2023/08/16 04:23:34;;;;;;;8.65;6.13;;;18.20;99.90;;;;;;4065370;29;20040;-63
2023/08/16 04:25:35;;;;;;;9.13;6.13;;;18.20;99.90;;;;;;4070404;29;20044;-63
2023/08/16 04:27:36;;;;;;;11.40;7.60;;;18.10;99.90;;;;;;4064639;29;20040;-65
2023/08/16 04:29:38;;;;;;;9.27;7.10;;;18.10;99.90;;;;;;4066193;29;20552;-64
2023/08/16 04:31:39;;;;;;;14.45;7.97;;;18.10;99.90;;;;;;4064505;29;20036;-63
2023/08/16 04:33:40;;;;;;;11.77;8.00;;;18.10;99.90;;;;;;4075532;29;20039;-63
2023/08/16 04:35:41;;;;;;;15.20;8.45;;;18.10;99.90;;;;;;4073192;29;20486;-63
2023/08/16 04:37:42;;;;;;;10.80;7.63;;;18.10;99.90;;;;;;4063041;29;20035;-63
2023/08/16 04:39:44;;;;;;;21.30;8.40;;;18.10;99.90;;;;;;4064075;29;20110;-62
2023/08/16 04:41:45;;;;;;;11.77;8.20;;;18.20;99.90;;;;;;4066414;29;20492;-64
2023/08/16 04:43:46;;;;;;;12.20;9.07;;;18.20;99.90;;;;;;4052146;29;20044;-62
2023/08/16 04:45:47;;;;;;;16.42;9.63;;;18.20;99.90;;;;;;4065805;29;20056;-65
2023/08/16 04:47:48;;;;;;;13.48;9.40;;;18.20;99.90;;;;;;4054827;29;20096;-63
2023/08/16 04:49:51;;;;;;;18.95;10.05;;;18.10;99.90;;;;;;4062217;29;20112;-64
2023/08/16 04:51:52;;;;;;;19.67;10.40;;;18.10;99.90;;;;;;4070626;29;20035;-64
2023/08/16 04:53:53;;;;;;;18.08;10.82;;;18.00;99.90;;;;;;4072597;29;20031;-64
2023/08/16 04:55:54;;;;;;;18.95;9.88;;;18.00;99.90;;;;;;4078203;29;20453;-63
2023/08/16 04:57:55;;;;;;;17.98;9.45;;;18.00;99.90;;;;;;4077515;29;20103;-64
2023/08/16 04:59:56;;;;;;;16.83;9.88;;;18.00;99.90;;;;;;4074584;29;20464;-63
2023/08/16 05:01:58;;;;;;;13.73;9.15;;;18.10;99.90;;;;;;4064490;29;20430;-64
2023/08/16 05:03:59;;;;;;;16.20;9.27;;;18.20;99.90;;;;;;4065047;29;20493;-62
2023/08/16 05:06:04;;;;;;;23.58;11.63;;;18.30;99.90;;;;;;4063686;29;20441;-64
2023/08/16 05:08:05;;;;;;;16.70;10.70;;;18.40;99.90;;;;;;4069374;29;20032;-63
2023/08/16 05:10:06;;;;;;;15.27;9.77;;;18.40;99.90;;;;;;4063093;29;20509;-64
2023/08/16 05:12:08;;;;;;;11.77;9.15;;;18.40;99.90;;;;;;4065314;29;20088;-64
2023/08/16 05:14:09;;;;;;;16.73;10.73;;;18.40;99.90;;;;;;4074161;29;20036;-61
2023/08/16 05:16:10;;;;;;;16.17;10.10;;;18.40;99.90;;;;;;4077493;29;20048;-61
2023/08/16 05:18:14;;;;;;;14.10;10.95;;;18.40;99.90;;;;;;4077854;29;20078;-63
2023/08/16 05:20:15;;;;;;;18.60;11.85;;;18.30;99.90;;;;;;4079932;29;20087;-65
2023/08/16 05:22:16;;;;;;;20.90;12.55;;;18.40;99.90;;;;;;4078010;29;20028;-62
2023/08/16 05:24:17;;;;;;;18.70;10.75;;;18.40;99.90;;;;;;4080154;29;20118;-63
2023/08/16 05:26:19;;;;;;;18.70;10.27;;;18.40;99.90;;;;;;4080428;29;20057;-62
2023/08/16 05:28:20;;;;;;;16.98;10.23;;;18.40;99.90;;;;;;4079885;29;20119;-63
2023/08/16 05:30:21;;;;;;;21.48;10.70;;;18.40;99.90;;;;;;4080277;29;20025;-63
2023/08/16 05:32:22;;;;;;;20.23;9.93;;;18.40;99.90;;;;;;4079671;29;20047;-64
2023/08/16 05:34:23;;;;;;;16.85;10.13;;;18.50;99.90;;;;;;4080128;29;20039;-64
2023/08/16 05:36:28;;;;;;;17.60;10.93;;;18.50;99.90;;;;;;4078072;29;20019;-64
2023/08/16 05:38:29;;;;;;;16.20;9.57;;;18.60;99.90;;;;;;4080610;29;20024;-63
2023/08/16 05:40:30;;;;;;;19.48;10.07;;;18.70;99.90;;;;;;4079311;29;20032;-63
2023/08/16 05:42:31;;;;;;;12.82;9.20;;;18.90;99.90;;;;;;4079705;29;20036;-63
2023/08/16 05:44:32;;;;;;;17.42;10.45;;;18.90;99.90;;;;;;4078365;29;20047;-63
2023/08/16 05:46:34;;;;;;;14.15;9.25;;;19.00;99.90;;;;;;4080221;29;20110;-63
2023/08/16 05:48:35;;;;;;;19.02;10.52;;;19.00;99.90;;;;;;4079269;29;20095;-62
2023/08/16 05:50:36;;;;;;;19.10;10.05;;;19.00;99.90;;;;;;4080420;29;20035;-63
2023/08/16 05:52:37;;;;;;;17.90;9.38;;;19.00;99.90;;;;;;4078529;29;20104;-62
2023/08/16 05:54:38;;;;;;;17.08;10.13;;;19.10;99.90;;;;;;4080037;29;20047;-62
2023/08/16 05:56:40;;;;;;;21.85;9.63;;;19.20;99.90;;;;;;4079909;29;20433;-64
2023/08/16 05:58:41;;;;;;;18.48;9.75;;;19.20;99.90;;;;;;4080314;29;20149;-63
2023/08/16 06:00:45;;;;;;;20.67;10.85;;;19.30;99.90;;;;;;4082716;29;20043;-64
2023/08/16 06:02:46;;;;;;;16.38;9.73;;;19.30;99.90;;;;;;4082201;29;20095;-64
2023/08/16 06:04:48;;;;;;;17.92;11.05;;;19.30;99.90;;;;;;4083042;29;20043;-63
2023/08/16 06:06:49;;;;;;;16.15;9.55;;;19.40;99.90;;;;;;4081479;29;20031;-63
2023/08/16 06:08:50;;;;;;;21.15;9.35;;;19.40;99.90;;;;;;4083174;29;20310;-64
2023/08/16 06:10:51;;;;;;;22.92;10.02;;;19.40;99.90;;;;;;4082108;29;20024;-64
2023/08/16 06:12:52;;;;;;;20.58;10.00;;;19.40;99.90;;;;;;4083082;29;20106;-63
2023/08/16 06:14:53;;;;;;;23.58;10.90;;;19.30;99.90;;;;;;4081480;29;20454;-62
2023/08/16 06:16:54;;;;;;;19.23;10.32;;;19.30;99.90;;;;;;4083302;29;20028;-62
2023/08/16 06:18:56;;;;;;;23.05;10.27;;;19.40;99.90;;;;;;4082176;29;20063;-64
2023/08/16 06:20:57;;;;;;;17.02;10.10;;;19.60;99.90;;;;;;4082778;29;20067;-64
2023/08/16 06:22:58;;;;;;;16.45;9.77;;;19.70;99.90;;;;;;4081772;29;20079;-63
2023/08/16 06:25:00;;;;;;;20.77;10.18;;;19.80;99.90;;;;;;4080789;29;20040;-63
2023/08/16 06:27:01;;;;;;;18.40;9.93;;;19.90;99.90;;;;;;4082516;29;20028;-63
2023/08/16 06:29:02;;;;;;;16.33;9.23;;;20.00;99.90;;;;;;4082413;29;20068;-63
2023/08/16 06:31:03;;;;;;;11.95;9.48;;;20.00;99.90;;;;;;4081973;29;20044;-62
2023/08/16 06:33:05;;;;;;;13.98;9.32;;;20.00;99.90;;;;;;4082325;29;20035;-63
2023/08/16 06:35:08;;;;;;;16.05;9.52;;;20.00;99.90;;;;;;4082036;29;20052;-62
2023/08/16 06:37:09;;;;;;;21.45;10.73;;;19.90;99.90;;;;;;4081966;29;20090;-61
2023/08/16 06:39:11;;;;;;;18.38;10.48;;;19.90;99.90;;;;;;4082350;29;20091;-62
2023/08/16 06:41:12;;;;;;;21.98;10.20;;;19.80;99.90;;;;;;4081097;29;20100;-63
2023/08/16 06:43:14;;;;;;;29.27;11.43;;;19.80;99.90;;;;;;4081942;29;20385;-64
2023/08/16 06:45:15;;;;;;;23.45;11.75;;;19.80;99.90;;;;;;4081564;29;20031;-62
2023/08/16 06:47:16;;;;;;;23.50;12.02;;;19.90;99.90;;;;;;4082049;29;20106;-63
2023/08/16 06:49:17;;;;;;;21.88;11.32;;;19.90;99.90;;;;;;4081569;29;20031;-62
2023/08/16 06:51:18;;;;;;;26.73;11.88;;;19.90;99.90;;;;;;4082745;29;20057;-62
2023/08/16 06:53:20;;;;;;;21.80;10.80;;;19.90;99.90;;;;;;4080802;29;20043;-62
2023/08/16 06:55:22;;;;;;;18.73;11.82;;;20.00;99.90;;;;;;4082222;29;20043;-63
2023/08/16 06:57:23;;;;;;;22.65;12.18;;;20.10;99.90;;;;;;4081991;29;20082;-62
2023/08/16 06:59:25;;;;;;;20.83;10.90;;;20.20;99.90;;;;;;4081520;29;20040;-62
2023/08/16 07:01:26;;;;;;;25.73;11.50;;;20.40;99.90;;;;;;4081450;29;20147;-63
2023/08/16 07:03:27;;;;;;;30.02;11.80;;;20.60;99.90;;;;;;4081735;29;20523;-63
2023/08/16 07:05:28;;;;;;;18.77;10.88;;;20.90;99.90;;;;;;4081778;29;20032;-63
2023/08/16 07:07:31;;;;;;;20.65;10.30;;;21.10;99.90;;;;;;4081482;29;20523;-63
2023/08/16 07:09:32;;;;;;;16.70;9.30;;;21.30;99.90;;;;;;4081926;29;20547;-61
2023/08/16 07:11:33;;;;;;;12.68;8.05;;;21.40;99.90;;;;;;4080298;29;20362;-62
2023/08/16 07:13:34;;;;;;;11.52;7.90;;;21.60;99.90;;;;;;4081754;29;20118;-63
2023/08/16 07:15:35;;;;;;;11.77;8.43;;;21.60;99.90;;;;;;4079145;29;20496;-63
2023/08/16 07:17:37;;;;;;;10.60;7.95;;;21.70;99.90;;;;;;4082195;29;20543;-63
2023/08/16 07:19:38;;;;;;;14.43;7.47;;;21.80;99.90;;;;;;4080246;29;20374;-63
2023/08/16 07:21:39;;;;;;;15.88;7.47;;;21.80;99.90;;;;;;4081982;29;20043;-63
2023/08/16 07:23:40;;;;;;;15.45;7.15;;;21.80;99.90;;;;;;4080957;29;20048;-62
2023/08/16 07:25:41;;;;;;;11.40;7.90;;;21.90;99.90;;;;;;4081888;29;20047;-63
2023/08/16 07:27:42;;;;;;;32.78;10.73;;;21.90;99.90;;;;;;4081212;29;20036;-63
2023/08/16 07:29:44;;;;;;;33.05;11.20;;;21.80;99.90;;;;;;4081741;29;20094;-62
2023/08/16 07:31:48;;;;;;;28.25;11.43;;;21.90;99.90;;;;;;4080367;29;20575;-62
2023/08/16 07:33:49;;;;;;;46.17;12.13;;;22.00;99.90;;;;;;4081093;29;20063;-63
2023/08/16 07:35:50;;;;;;;45.30;13.48;;;22.10;99.90;;;;;;4081146;29;20031;-63
2023/08/16 07:37:51;;;;;;;40.17;13.88;;;22.10;99.90;;;;;;4081241;29;20020;-65
2023/08/16 07:39:52;;;;;;;51.90;16.30;;;22.20;99.90;;;;;;4080874;29;20111;-62
2023/08/16 07:41:54;;;;;;;38.65;13.60;;;22.30;99.90;;;;;;4080633;29;20111;-61
2023/08/16 07:43:57;;;;;;;49.22;14.23;;;22.40;99.90;;;;;;4081511;29;20039;-62
2023/08/16 07:45:58;;;;;;;44.85;14.02;;;22.50;99.90;;;;;;4080631;29;20067;-62
2023/08/16 07:47:59;;;;;;;46.78;13.02;;;22.60;99.90;;;;;;4081728;29;20499;-62
2023/08/16 07:50:00;;;;;;;39.58;14.18;;;22.60;99.90;;;;;;4080438;29;20032;-62
2023/08/16 07:52:01;;;;;;;37.10;12.82;;;22.70;99.90;;;;;;4081617;29;20032;-63
2023/08/16 07:54:02;;;;;;;34.70;13.50;;;22.80;99.90;;;;;;4080224;29;20443;-62
2023/08/16 07:56:04;;;;;;;31.85;12.07;;;22.90;99.90;;;;;;4081327;29;20098;-63
2023/08/16 07:58:05;;;;;;;38.78;12.15;;;23.00;99.90;;;;;;4080503;29;20083;-61
2023/08/16 08:00:11;;;;;;;34.55;11.25;;;23.00;99.90;;;;;;4080843;29;20036;-63
2023/08/16 08:02:13;;;;;;;31.67;9.85;;;23.00;99.90;;;;;;4080433;29;20484;-62
2023/08/16 08:04:14;;;;;;;26.80;10.18;;;23.10;99.90;;;;;;4080786;29;20055;-63
2023/08/16 08:06:15;;;;;;;20.77;9.18;;;23.10;99.90;;;;;;4080707;29;21015;-63
2023/08/16 08:08:17;;;;;;;27.55;9.98;;;23.20;99.90;;;;;;4081085;29;20425;-64
2023/08/16 08:10:18;;;;;;;25.08;10.18;;;23.20;99.90;;;;;;4080811;29;20094;-62
2023/08/16 08:12:19;;;;;;;24.23;9.40;;;23.40;99.90;;;;;;4080680;29;20455;-63
2023/08/16 08:14:20;;;;;;;28.52;9.15;;;23.50;99.90;;;;;;4080926;29;20365;-64
2023/08/16 08:16:21;;;;;;;27.90;9.18;;;23.60;99.90;;;;;;4080180;29;20027;-63
2023/08/16 08:18:22;;;;;;;21.63;8.25;;;23.80;99.90;;;;;;4081317;29;20035;-63
2023/08/16 08:20:23;;;;;;;24.42;8.65;;;23.80;99.90;;;;;;4080115;29;20096;-63
2023/08/16 08:22:24;;;;;;;19.08;9.00;;;23.90;99.90;;;;;;4080915;29;20035;-64
2023/08/16 08:24:26;;;;;;;24.02;9.38;;;24.00;99.90;;;;;;4079991;29;20040;-63
2023/08/16 08:26:27;;;;;;;24.95;9.63;;;24.00;99.90;;;;;;4080989;29;20087;-64
2023/08/16 08:28:28;;;;;;;35.88;10.50;;;24.10;99.90;;;;;;4079989;29;20039;-63
2023/08/16 08:30:30;;;;;;;28.35;9.48;;;24.20;99.90;;;;;;4080454;29;20036;-64
2023/08/16 08:32:32;;;;;;;28.63;8.70;;;24.40;99.90;;;;;;4079986;29;20099;-63
2023/08/16 08:34:33;;;;;;;27.52;9.13;;;24.60;99.90;;;;;;4080541;29;20043;-63
2023/08/16 08:36:34;;;;;;;18.25;7.10;;;24.70;99.90;;;;;;4079807;29;20051;-64
2023/08/16 08:38:35;;;;;;;21.30;6.88;;;24.80;99.90;;;;;;4079884;29;20079;-64
2023/08/16 08:40:37;;;;;;;18.40;6.38;;;25.00;99.90;;;;;;4078210;29;20099;-63
2023/08/16 08:42:40;;;;;;;14.75;6.50;;;25.20;99.90;;;;;;4079607;29;20102;-63
2023/08/16 08:44:43;;;;;;;24.73;6.50;;;25.30;99.90;;;;;;4080039;29;20035;-63
2023/08/16 08:46:46;;;;;;;22.88;6.97;;;25.50;99.90;;;;;;4080007;29;20448;-63
2023/08/16 08:48:47;;;;;;;14.45;6.03;;;25.60;99.90;;;;;;4079912;29;20098;-63
2023/08/16 08:50:49;;;;;;;22.13;7.10;;;25.60;99.90;;;;;;4079607;29;20086;-61
2023/08/16 08:52:53;;;;;;;16.17;6.90;;;25.60;99.90;;;;;;4080549;29;20031;-63
2023/08/16 08:54:55;;;;;;;15.82;5.60;;;25.60;99.90;;;;;;4078991;29;20505;-62
2023/08/16 08:56:59;;;;;;;12.95;5.28;;;25.70;99.90;;;;;;4080501;29;20079;-62
2023/08/16 08:59:01;;;;;;;17.77;5.15;;;25.80;99.90;;;;;;4078652;29;20047;-62
2023/08/16 09:01:03;;;;;;;13.55;5.35;;;25.80;99.90;;;;;;4080122;29;20044;-62
2023/08/16 09:03:07;;;;;;;11.73;5.57;;;25.80;99.90;;;;;;4078694;29;20044;-62
2023/08/16 09:05:10;;;;;;;14.57;5.28;;;25.80;99.90;;;;;;4079832;29;20052;-63
2023/08/16 09:07:12;;;;;;;12.90;4.90;;;25.80;99.90;;;;;;4078627;29;20102;-63
2023/08/16 09:09:14;;;;;;;10.45;4.50;;;25.90;99.90;;;;;;4080323;29;20051;-62
2023/08/16 09:11:15;;;;;;;4.93;3.83;;;26.00;99.90;;;;;;4079247;29;20028;-62
2023/08/16 09:13:18;;;;;;;8.70;4.40;;;26.00;99.90;;;;;;4079457;29;20398;-63
2023/08/16 09:15:19;;;;;;;5.90;4.20;;;26.00;99.90;;;;;;4079054;29;20118;-63
2023/08/16 09:17:20;;;;;;;6.85;3.97;;;26.00;99.90;;;;;;4093647;29;20035;-63
2023/08/16 09:19:21;;;;;;;13.48;4.85;;;26.00;99.90;;;;;;4079376;29;20488;-63
2023/08/16 09:21:28;;;;;;;15.57;4.85;;;25.90;99.90;;;;;;4079877;29;20346;-62
2023/08/16 09:23:32;;;;;;;26.35;5.60;;;25.80;99.90;;;;;;4079666;29;20020;-61
2023/08/16 09:25:34;;;;;;;14.40;5.95;;;25.70;99.90;;;;;;4079584;29;20040;-61
2023/08/16 09:27:36;;;;;;;15.43;4.90;;;25.70;99.90;;;;;;4080401;29;20114;-62
2023/08/16 09:29:39;;;;;;;16.35;5.45;;;25.70;99.90;;;;;;4078486;29;20362;-62
2023/08/16 09:31:41;;;;;;;22.40;6.38;;;25.70;99.90;;;;;;4080172;29;20425;-61
2023/08/16 09:33:43;;;;;;;17.58;4.57;;;25.80;99.90;;;;;;4079396;29;20103;-62
2023/08/16 09:35:48;;;;;;;8.32;4.43;;;25.80;99.90;;;;;;4083279;29;20448;-62
2023/08/16 09:37:58;;;;;;;8.10;3.78;;;25.80;99.90;;;;;;4081874;29;20429;-62
2023/08/16 09:39:59;;;;;;;6.65;4.55;;;25.80;99.90;;;;;;4083529;29;20567;-63
2023/08/16 09:42:00;;;;;;;10.48;4.00;;;25.90;99.90;;;;;;4082006;29;20031;-62
2023/08/16 09:44:10;;;;;;;5.57;3.80;;;25.90;99.90;;;;;;4083323;29;20036;-62
2023/08/16 09:46:12;;;;;;;10.18;4.20;;;26.00;99.90;;;;;;4081466;29;20035;-63
2023/08/16 09:48:13;;;;;;;9.50;3.95;;;26.00;99.90;;;;;;4083105;29;20441;-63
2023/08/16 09:50:17;;;;;;;7.40;3.65;;;25.90;99.90;;;;;;4082240;29;20063;-63
2023/08/16 09:52:19;;;;;;;9.65;4.15;;;25.80;99.90;;;;;;4083016;29;20048;-61
2023/08/16 09:54:23;;;;;;;6.85;4.38;;;25.80;99.90;;;;;;4082267;29;20036;-64
2023/08/16 09:56:27;;;;;;;10.43;4.70;;;25.80;99.90;;;;;;4082932;29;20036;-64
2023/08/16 09:58:29;;;;;;;6.43;4.05;;;25.80;99.90;;;;;;4082185;29;20044;-64
2023/08/16 10:00:32;;;;;;;10.40;4.18;;;25.90;99.90;;;;;;4082625;29;20389;-63
2023/08/16 10:02:33;;;;;;;5.40;3.20;;;25.90;99.90;;;;;;4082405;29;20063;-63
2023/08/16 10:04:35;;;;;;;13.57;3.63;;;25.80;99.90;;;;;;4082340;29;20548;-63
2023/08/16 10:06:36;;;;;;;9.75;4.20;;;25.80;99.90;;;;;;4082525;29;20031;-63
2023/08/16 10:08:38;;;;;;;10.02;4.43;;;25.80;99.90;;;;;;4082088;29;20020;-62
2023/08/16 10:10:39;;;;;;;7.43;3.50;;;25.70;99.90;;;;;;4082646;29;20035;-63
2023/08/16 10:12:41;;;;;;;10.00;3.15;;;25.60;99.90;;;;;;4081118;29;20048;-63
2023/08/16 10:14:43;;;;;;;7.43;3.88;;;25.60;99.90;;;;;;4080589;29;20032;-62
2023/08/16 10:16:48;;;;;;;7.57;4.35;;;25.60;99.90;;;;;;4081375;29;20086;-63
2023/08/16 10:18:52;;;;;;;7.07;4.15;;;25.70;99.90;;;;;;4082172;29;20048;-64
2023/08/16 10:20:59;;;;;;;5.85;3.85;;;25.80;99.90;;;;;;4081751;29;20087;-63
2023/08/16 10:23:03;;;;;;;8.95;3.85;;;25.90;99.90;;;;;;4082654;29;20067;-63
2023/08/16 10:25:17;;;;;;;5.18;3.17;;;25.90;99.90;;;;;;4081699;29;20036;-64
2023/08/16 10:27:21;;;;;;;7.43;3.75;;;26.00;99.90;;;;;;4083039;29;20039;-63